Time;durP1;ratioP1;P1;durP2;ratioP2;P2;SDS_P1;SDS_P2;PMS_P1;PMS_P2;Temp;Humidity;BMP_temperature;BMP_pressure;BME280_temperature;BME280_humidity;BME280_pressure;Samples;Min_cycle;Max_cycle;Signal;HPM_P1;HPM_P2
2024/04/02 00:00:22;;;;;;;0.20;0.20;;;5.30;99.90;;;;;;8297648;28;20441;-86
2024/04/02 00:04:22;;;;;;;0.30;0.25;;;5.30;99.90;;;;;;8294404;28;20018;-85
2024/04/02 00:08:23;;;;;;;0.20;0.20;;;5.40;99.90;;;;;;8288467;28;20113;-85
2024/04/02 00:12:23;;;;;;;0.20;0.20;;;5.20;99.90;;;;;;8292309;28;20022;-85
2024/04/02 00:16:24;;;;;;;0.10;0.10;;;5.20;99.90;;;;;;8301520;28;20090;-86
2024/04/02 00:20:25;;;;;;;0.32;0.20;;;5.30;99.90;;;;;;8288744;28;20022;-85
2024/04/02 00:24:26;;;;;;;0.25;0.25;;;5.30;99.90;;;;;;8300328;28;20037;-84
2024/04/02 00:28:26;;;;;;;0.28;0.25;;;5.30;99.90;;;;;;8299063;28;20570;-87
2024/04/02 00:32:27;;;;;;;2.45;0.50;;;5.40;99.90;;;;;;8295896;28;20037;-85
2024/04/02 00:36:27;;;;;;;0.17;0.17;;;5.40;99.90;;;;;;8292253;28;20055;-84
2024/04/02 00:40:28;;;;;;;0.57;0.30;;;5.50;99.90;;;;;;8305577;28;20522;-85
2024/04/02 00:44:28;;;;;;;0.82;0.50;;;5.40;99.90;;;;;;8293218;28;20076;-88
2024/04/02 00:48:29;;;;;;;0.45;0.30;;;5.30;99.90;;;;;;8295942;28;20407;-85
2024/04/02 00:52:30;;;;;;;0.60;0.32;;;5.40;99.90;;;;;;8299030;28;20018;-85
2024/04/02 00:56:31;;;;;;;2.25;0.20;;;5.40;99.90;;;;;;8295711;28;20029;-84
2024/04/02 01:00:32;;;;;;;0.43;0.35;;;5.40;99.90;;;;;;8286643;28;20458;-84
2024/04/02 01:04:34;;;;;;;0.40;0.40;;;5.40;99.90;;;;;;8291382;28;20402;-85
2024/04/02 01:08:35;;;;;;;0.25;0.20;;;5.40;99.90;;;;;;8291599;28;20065;-85
2024/04/02 01:12:35;;;;;;;0.60;0.50;;;5.40;99.90;;;;;;8314681;28;20040;-85
2024/04/02 01:16:44;;;;;;;0.28;0.20;;;5.40;99.90;;;;;;8291880;28;20499;-85
2024/04/02 01:20:44;;;;;;;0.40;0.30;;;5.30;99.90;;;;;;8290315;28;20034;-84
2024/04/02 01:24:51;;;;;;;0.47;0.40;;;5.40;99.90;;;;;;8297054;28;20034;-84
2024/04/02 01:28:58;;;;;;;0.68;0.40;;;5.40;99.90;;;;;;8306085;28;20018;-85
2024/04/02 01:32:58;;;;;;;0.20;0.20;;;5.50;99.90;;;;;;8296463;28;20037;-85
2024/04/02 01:36:59;;;;;;;0.50;0.20;;;5.80;99.90;;;;;;8291131;28;20395;-84
2024/04/02 01:40:59;;;;;;;0.38;0.25;;;6.00;99.90;;;;;;8298102;28;20060;-84
2024/04/02 01:45:00;;;;;;;0.10;0.10;;;6.20;99.90;;;;;;8297864;28;20041;-86
2024/04/02 01:49:00;;;;;;;0.50;0.30;;;6.50;99.90;;;;;;8289689;28;20501;-84
2024/04/02 01:53:01;;;;;;;0.40;0.40;;;6.40;99.90;;;;;;8292340;28;20030;-84
2024/04/02 01:57:01;;;;;;;0.65;0.10;;;6.60;99.90;;;;;;8292721;28;20044;-85
2024/04/02 02:01:02;;;;;;;0.20;0.20;;;6.50;99.90;;;;;;8296424;28;20096;-82
2024/04/02 02:05:03;;;;;;;0.32;0.20;;;6.60;99.90;;;;;;8295748;28;20030;-83
2024/04/02 02:09:03;;;;;;;0.30;0.30;;;6.70;99.90;;;;;;8295510;28;20150;-83
2024/04/02 02:13:05;;;;;;;0.30;0.30;;;6.60;99.90;;;;;;8293177;28;20034;-81
2024/04/02 02:17:06;;;;;;;0.22;0.20;;;6.70;99.90;;;;;;8287701;28;20033;-83
2024/04/02 02:21:06;;;;;;;0.55;0.40;;;6.60;99.90;;;;;;8293507;28;20056;-82
2024/04/02 02:25:07;;;;;;;0.77;0.40;;;6.50;99.90;;;;;;8294570;28;20087;-83
2024/04/02 02:29:07;;;;;;;0.22;0.22;;;6.50;99.90;;;;;;8296237;28;20026;-83
2024/04/02 02:33:08;;;;;;;0.38;0.30;;;6.60;99.90;;;;;;8290920;28;20037;-84
2024/04/02 02:37:08;;;;;;;0.60;0.38;;;6.50;99.90;;;;;;8284703;28;20494;-82
2024/04/02 02:41:09;;;;;;;1.55;0.50;;;6.50;99.90;;;;;;8307070;28;20533;-83
2024/04/02 02:45:09;;;;;;;1.05;0.45;;;6.50;99.90;;;;;;8307625;28;20487;-83
2024/04/02 02:49:10;;;;;;;0.30;0.30;;;6.50;99.90;;;;;;8302947;28;20026;-83
2024/04/02 02:53:11;;;;;;;0.50;0.47;;;6.40;99.90;;;;;;8295048;28;20044;-83
2024/04/02 02:57:11;;;;;;;0.40;0.40;;;6.50;99.90;;;;;;8294602;28;20399;-83
2024/04/02 03:01:12;;;;;;;0.55;0.32;;;6.30;99.90;;;;;;8292112;28;20240;-83
2024/04/02 03:05:13;;;;;;;0.47;0.40;;;6.50;99.90;;;;;;8307369;28;20068;-84
2024/04/02 03:09:13;;;;;;;0.30;0.30;;;6.50;99.90;;;;;;8296038;28;20022;-83
2024/04/02 03:13:14;;;;;;;0.73;0.50;;;6.40;99.90;;;;;;8300781;28;20017;-84
2024/04/02 03:17:14;;;;;;;0.50;0.40;;;6.50;99.90;;;;;;8296730;28;20049;-83
2024/04/02 03:21:15;;;;;;;0.57;0.57;;;6.50;99.90;;;;;;8294764;28;20026;-83
2024/04/02 03:25:15;;;;;;;0.60;0.43;;;6.40;99.90;;;;;;8294526;28;20057;-83
2024/04/02 03:29:16;;;;;;;0.60;0.50;;;6.40;99.90;;;;;;8298841;28;20117;-83
2024/04/02 03:33:17;;;;;;;0.68;0.57;;;6.50;99.90;;;;;;8295574;28;20619;-83
2024/04/02 03:37:17;;;;;;;0.50;0.30;;;6.50;99.90;;;;;;8292214;28;20033;-83
2024/04/02 03:41:18;;;;;;;1.48;0.57;;;6.30;99.90;;;;;;8300121;28;20030;-83
2024/04/02 03:45:20;;;;;;;0.40;0.40;;;6.40;99.90;;;;;;8294662;28;20405;-83
2024/04/02 03:49:20;;;;;;;0.60;0.43;;;6.50;99.90;;;;;;8290960;28;20243;-81
2024/04/02 03:53:21;;;;;;;0.30;0.30;;;6.60;99.90;;;;;;8297619;28;20079;-82
2024/04/02 03:57:21;;;;;;;0.45;0.40;;;6.60;99.90;;;;;;8293873;28;20057;-84
2024/04/02 04:01:22;;;;;;;0.22;0.22;;;6.40;99.90;;;;;;8299948;28;20029;-83
2024/04/02 04:05:24;;;;;;;0.32;0.30;;;6.30;99.90;;;;;;8300140;28;20026;-82
2024/04/02 04:09:24;;;;;;;0.32;0.30;;;6.20;99.90;;;;;;8300305;28;20030;-88
2024/04/02 04:13:26;;;;;;;0.32;0.32;;;6.20;99.90;;;;;;8355649;28;20045;-88
2024/04/02 04:17:26;;;;;;;0.38;0.30;;;6.10;99.90;;;;;;8336971;28;20064;-89
2024/04/02 04:21:27;;;;;;;0.73;0.60;;;5.90;99.90;;;;;;8313400;28;20026;-85
2024/04/02 04:25:27;;;;;;;0.40;0.40;;;5.80;99.90;;;;;;8303823;28;20030;-86
2024/04/02 04:29:27;;;;;;;0.80;0.52;;;5.70;99.90;;;;;;8299642;28;20018;-85
2024/04/02 04:33:30;;;;;;;0.40;0.30;;;5.50;99.90;;;;;;8304400;28;20029;-85
2024/04/02 04:37:31;;;;;;;0.40;0.40;;;5.40;99.90;;;;;;8310127;28;20056;-88
2024/04/02 04:41:32;;;;;;;0.82;0.50;;;5.40;99.90;;;;;;8315619;28;20030;-85
2024/04/02 04:45:32;;;;;;;0.55;0.43;;;5.40;99.90;;;;;;8314541;28;20037;-85
2024/04/02 04:49:33;;;;;;;0.35;0.32;;;5.40;99.90;;;;;;8300121;28;20045;-84
2024/04/02 04:53:34;;;;;;;0.45;0.30;;;5.50;99.90;;;;;;8302123;28;20022;-85
2024/04/02 04:57:34;;;;;;;0.35;0.25;;;5.30;99.90;;;;;;8293640;28;20015;-85
2024/04/02 05:01:35;;;;;;;0.38;0.30;;;5.20;99.90;;;;;;8292414;28;20026;-86
2024/04/02 05:05:35;;;;;;;0.57;0.40;;;5.20;99.90;;;;;;8294169;28;20065;-85
2024/04/02 05:09:36;;;;;;;0.47;0.30;;;5.40;99.90;;;;;;8299713;28;20041;-85
2024/04/02 05:13:37;;;;;;;0.20;0.20;;;5.40;99.90;;;;;;8315486;28;20033;-84
2024/04/02 05:17:37;;;;;;;0.15;0.15;;;5.60;99.90;;;;;;8299519;28;20091;-85
2024/04/02 05:21:38;;;;;;;1.00;0.50;;;5.60;99.90;;;;;;8300605;28;20022;-84
2024/04/02 05:25:40;;;;;;;0.35;0.30;;;5.60;99.90;;;;;;8299025;28;20034;-84
2024/04/02 05:29:40;;;;;;;0.50;0.30;;;5.80;99.90;;;;;;8295205;28;20153;-84
2024/04/02 05:33:42;;;;;;;0.80;0.30;;;5.80;99.90;;;;;;8298784;28;20380;-84
2024/04/02 05:37:42;;;;;;;0.20;0.20;;;5.90;99.90;;;;;;8295823;28;20036;-85
2024/04/02 05:41:43;;;;;;;0.20;0.20;;;5.80;99.90;;;;;;8300393;28;20502;-84
2024/04/02 05:45:43;;;;;;;0.80;0.35;;;5.80;99.90;;;;;;8316775;28;20108;-86
2024/04/02 05:49:44;;;;;;;0.50;0.10;;;5.70;99.90;;;;;;8302111;28;20165;-85
2024/04/02 05:53:45;;;;;;;0.43;0.25;;;5.60;99.90;;;;;;8300770;28;20025;-85
2024/04/02 05:57:45;;;;;;;0.47;0.20;;;5.90;99.90;;;;;;8301937;28;20022;-85
2024/04/02 06:01:46;;;;;;;0.25;0.20;;;5.80;99.90;;;;;;8300080;28;20040;-85
2024/04/02 06:05:46;;;;;;;0.20;0.13;;;6.00;99.90;;;;;;8300742;28;20109;-85
2024/04/02 06:09:47;;;;;;;0.70;0.30;;;6.10;99.90;;;;;;8299091;28;20040;-85
2024/04/02 06:13:47;;;;;;;0.32;0.20;;;6.20;99.90;;;;;;8305183;28;20060;-84
2024/04/02 06:17:48;;;;;;;0.22;0.22;;;6.20;99.90;;;;;;8316376;28;20444;-85
2024/04/02 06:21:49;;;;;;;0.60;0.25;;;6.50;99.90;;;;;;8301653;28;20037;-85
2024/04/02 06:25:49;;;;;;;0.10;0.10;;;6.70;99.90;;;;;;8306261;28;20042;-85
2024/04/02 06:29:50;;;;;;;0.25;0.20;;;7.00;99.90;;;;;;8300810;28;20386;-84
2024/04/02 06:33:50;;;;;;;0.13;0.13;;;7.30;99.90;;;;;;8296923;28;20030;-86
2024/04/02 06:37:51;;;;;;;0.20;0.20;;;7.60;99.90;;;;;;8299101;28;20035;-85
2024/04/02 06:41:51;;;;;;;2.22;0.30;;;7.80;99.90;;;;;;8299489;28;20030;-86
2024/04/02 06:45:56;;;;;;;0.10;0.10;;;8.00;99.90;;;;;;8296970;28;20037;-84
2024/04/02 06:49:56;;;;;;;0.45;0.32;;;8.00;99.90;;;;;;8296246;28;20041;-85
2024/04/02 06:53:57;;;;;;;0.17;0.17;;;8.00;99.90;;;;;;8297692;28;20070;-85
2024/04/02 06:57:57;;;;;;;0.20;0.20;;;8.40;99.90;;;;;;8298872;28;20030;-86
2024/04/02 07:01:58;;;;;;;0.20;0.20;;;8.30;99.90;;;;;;8292749;28;20030;-84
2024/04/02 07:05:58;;;;;;;0.40;0.30;;;8.40;99.90;;;;;;8289891;28;20076;-84
2024/04/02 07:09:59;;;;;;;0.20;0.20;;;8.40;99.90;;;;;;8297487;28;20161;-85
2024/04/02 07:14:01;;;;;;;0.10;0.10;;;8.60;99.90;;;;;;8290872;28;20104;-85
2024/04/02 07:18:02;;;;;;;4.43;0.90;;;8.90;99.90;;;;;;8297453;28;20080;-84
2024/04/02 07:22:03;;;;;;;1.00;0.20;;;9.20;99.90;;;;;;8296441;28;20030;-84
2024/04/02 07:26:04;;;;;;;0.45;0.20;;;9.00;99.90;;;;;;8314087;28;20095;-84
2024/04/02 07:30:05;;;;;;;1.58;0.20;;;8.80;99.90;;;;;;8296313;28;20092;-85
2024/04/02 07:34:06;;;;;;;1.45;0.32;;;9.00;99.90;;;;;;8298380;28;20062;-84
2024/04/02 07:38:06;;;;;;;0.50;0.30;;;9.30;99.90;;;;;;8313196;28;20021;-86
2024/04/02 07:42:07;;;;;;;2.78;0.30;;;9.50;99.90;;;;;;8293357;28;20026;-85
2024/04/02 07:46:09;;;;;;;0.95;0.30;;;9.70;99.90;;;;;;8300129;28;20026;-84
2024/04/02 07:50:09;;;;;;;1.27;0.30;;;10.10;99.90;;;;;;8302907;28;20117;-85
2024/04/02 07:54:10;;;;;;;0.38;0.20;;;10.10;99.90;;;;;;8299958;28;20639;-84
2024/04/02 07:58:11;;;;;;;0.10;0.10;;;10.00;99.90;;;;;;8302717;28;20018;-85
2024/04/02 08:02:11;;;;;;;0.20;0.20;;;10.20;99.90;;;;;;8302404;28;20033;-85
2024/04/02 08:06:12;;;;;;;0.85;0.38;;;10.40;99.90;;;;;;8304825;28;20021;-85
2024/04/02 08:10:13;;;;;;;3.00;0.68;;;10.20;99.90;;;;;;8297266;28;20104;-85
2024/04/02 08:14:14;;;;;;;0.10;0.10;;;10.20;99.90;;;;;;8298323;28;20087;-86
2024/04/02 08:18:14;;;;;;;1.25;0.30;;;10.10;99.90;;;;;;8301903;28;20026;-85
2024/04/02 08:22:16;;;;;;;0.30;0.30;;;10.30;99.90;;;;;;8302943;28;20029;-86
2024/04/02 08:26:19;;;;;;;0.60;0.28;;;10.40;99.90;;;;;;8301569;28;20030;-85
2024/04/02 08:30:19;;;;;;;3.35;0.40;;;10.30;99.90;;;;;;8300934;28;20034;-85
2024/04/02 08:34:20;;;;;;;3.53;0.30;;;9.90;99.90;;;;;;8303584;28;20030;-85
2024/04/02 08:38:20;;;;;;;0.95;0.30;;;10.00;99.90;;;;;;8306705;28;20017;-85
2024/04/02 08:42:21;;;;;;;0.45;0.30;;;10.50;99.90;;;;;;8303148;28;20038;-86
2024/04/02 08:46:22;;;;;;;1.73;0.40;;;11.40;99.90;;;;;;8297282;28;20348;-85
2024/04/02 08:50:23;;;;;;;0.73;0.40;;;11.70;99.90;;;;;;8298081;28;20029;-84
2024/04/02 08:54:24;;;;;;;3.22;0.60;;;11.60;99.90;;;;;;8319914;28;20087;-85
2024/04/02 08:58:28;;;;;;;0.30;0.30;;;11.70;99.90;;;;;;8308558;28;20049;-84
2024/04/02 09:02:29;;;;;;;1.65;0.35;;;11.90;99.90;;;;;;8300456;28;20026;-85
2024/04/02 09:06:30;;;;;;;1.00;0.28;;;12.10;99.90;;;;;;8300241;28;20049;-84
2024/04/02 09:10:30;;;;;;;0.65;0.30;;;12.00;99.90;;;;;;8295973;28;20125;-85
2024/04/02 09:14:34;;;;;;;0.30;0.30;;;12.10;99.90;;;;;;8316608;28;20030;-84
2024/04/02 09:18:40;;;;;;;3.13;0.40;;;12.10;99.90;;;;;;8301140;28;20121;-85
2024/04/02 09:22:41;;;;;;;0.80;0.30;;;12.40;99.90;;;;;;8321608;28;20129;-88
2024/04/02 09:26:42;;;;;;;1.05;0.30;;;12.20;99.90;;;;;;8333717;28;20038;-86
2024/04/02 09:30:42;;;;;;;1.15;0.30;;;11.80;99.90;;;;;;8314610;28;20033;-85
2024/04/02 09:34:45;;;;;;;1.23;0.40;;;11.20;99.90;;;;;;8301874;28;20062;-86
2024/04/02 09:38:46;;;;;;;0.40;0.40;;;10.80;99.90;;;;;;8308848;28;20071;-86
2024/04/02 09:42:49;;;;;;;0.85;0.50;;;11.40;99.90;;;;;;8316421;28;20383;-85
2024/04/02 09:46:51;;;;;;;0.90;0.40;;;12.20;99.90;;;;;;8301237;28;20041;-85
2024/04/02 09:50:52;;;;;;;0.60;0.40;;;12.50;99.90;;;;;;8301329;28;20029;-87
2024/04/02 09:54:54;;;;;;;3.00;0.50;;;12.50;99.90;;;;;;8305205;28;20021;-85
2024/04/02 09:58:55;;;;;;;0.52;0.30;;;12.80;99.90;;;;;;8305057;28;20022;-85
2024/04/02 10:02:56;;;;;;;2.33;0.57;;;13.10;99.90;;;;;;8302671;28;20022;-85
2024/04/02 10:06:58;;;;;;;0.32;0.30;;;13.20;99.90;;;;;;8305761;28;20057;-85
2024/04/02 10:11:03;;;;;;;3.95;0.40;;;13.90;99.90;;;;;;8294585;28;20116;-85
2024/04/02 10:15:05;;;;;;;0.52;0.22;;;13.20;99.90;;;;;;8293397;28;20084;-84
2024/04/02 10:19:11;;;;;;;0.90;0.55;;;13.60;99.90;;;;;;8297895;28;20037;-85
2024/04/02 10:23:15;;;;;;;0.80;0.22;;;14.20;99.90;;;;;;8298744;28;20502;-85
2024/04/02 10:27:16;;;;;;;1.17;0.30;;;14.00;99.90;;;;;;8308965;28;20197;-84
2024/04/02 10:31:17;;;;;;;1.65;0.45;;;13.50;99.90;;;;;;8295384;28;20072;-86
2024/04/02 10:35:17;;;;;;;1.42;0.47;;;13.60;99.90;;;;;;8305378;28;20029;-85
2024/04/02 10:39:18;;;;;;;1.50;0.68;;;13.30;99.90;;;;;;8297626;28;20034;-85
2024/04/02 10:43:19;;;;;;;1.65;0.22;;;13.10;99.90;;;;;;8295741;28;20044;-85
2024/04/02 10:47:20;;;;;;;1.25;0.35;;;12.20;99.90;;;;;;8297375;28;20050;-84
2024/04/02 10:51:20;;;;;;;3.17;0.47;;;12.60;99.90;;;;;;8300254;28;20029;-85
2024/04/02 10:55:21;;;;;;;0.75;0.40;;;13.10;99.90;;;;;;8301758;28;20042;-84
2024/04/02 10:59:21;;;;;;;1.20;0.30;;;13.10;99.90;;;;;;8292022;28;20726;-85
2024/04/02 11:03:22;;;;;;;2.40;0.20;;;14.40;99.90;;;;;;8306377;28;20036;-86
2024/04/02 11:07:25;;;;;;;2.58;0.55;;;15.30;99.90;;;;;;8308741;28;20030;-86
2024/04/02 11:11:26;;;;;;;0.35;0.30;;;16.80;99.90;;;;;;8294806;28;20030;-85
2024/04/02 11:15:27;;;;;;;1.95;0.40;;;16.90;99.90;;;;;;8296124;28;20026;-86
2024/04/02 11:19:27;;;;;;;1.67;0.30;;;15.50;99.90;;;;;;8299261;28;20060;-86
2024/04/02 11:27:48;;;;;;;1.58;0.43;;;14.50;99.90;;;;;;8307025;28;20045;-86
2024/04/02 11:31:48;;;;;;;0.90;0.30;;;14.00;99.90;;;;;;8303922;28;20034;-85
2024/04/02 11:35:53;;;;;;;0.50;0.35;;;14.10;99.90;;;;;;8301679;28;20022;-85
2024/04/02 11:39:55;;;;;;;0.47;0.32;;;14.30;99.90;;;;;;8302122;28;20500;-85
2024/04/02 11:43:56;;;;;;;0.50;0.40;;;15.20;99.90;;;;;;8303410;28;20448;-85
2024/04/02 11:47:56;;;;;;;0.65;0.30;;;16.70;99.90;;;;;;8319316;28;20029;-85
2024/04/02 11:51:57;;;;;;;0.30;0.30;;;17.40;99.90;;;;;;8318555;28;20033;-85
2024/04/02 11:55:58;;;;;;;0.40;0.25;;;17.50;99.90;;;;;;8301133;28;20052;-86
2024/04/02 12:00:40;;;;;;;0.47;0.20;;;15.50;99.90;;;;;;8301820;28;20447;-86
2024/04/02 12:04:22;;;;;;;0.30;0.30;;;14.20;99.90;;;;;;8301183;28;20037;-85
2024/04/02 12:08:24;;;;;;;0.10;0.10;;;14.70;99.90;;;;;;8318715;28;20026;-85
2024/04/02 12:12:28;;;;;;;0.32;0.20;;;14.60;99.90;;;;;;8298233;28;20026;-85
2024/04/02 12:16:29;;;;;;;1.52;0.30;;;13.60;99.90;;;;;;8319682;28;20036;-85
2024/04/02 12:20:29;;;;;;;0.22;0.20;;;13.00;99.90;;;;;;8296213;28;20033;-84
2024/04/02 12:24:30;;;;;;;0.52;0.30;;;13.90;99.90;;;;;;8300744;28;20034;-85
2024/04/02 12:28:31;;;;;;;0.55;0.20;;;17.60;99.90;;;;;;8304262;28;20122;-84
2024/04/02 12:32:33;;;;;;;0.68;0.40;;;19.00;99.90;;;;;;8304837;28;20022;-84
2024/04/02 12:36:34;;;;;;;0.20;0.20;;;18.70;99.90;;;;;;8305925;28;20018;-84
2024/04/02 12:40:36;;;;;;;1.40;0.30;;;19.60;97.60;;;;;;8304325;28;20406;-84
2024/04/02 12:44:39;;;;;;;0.30;0.30;;;18.70;99.60;;;;;;8306907;28;20022;-87
2024/04/02 12:48:40;;;;;;;0.20;0.20;;;18.40;98.60;;;;;;8302800;28;20080;-84
2024/04/02 12:52:41;;;;;;;0.40;0.35;;;17.80;99.90;;;;;;8304937;28;20447;-85
2024/04/02 12:56:42;;;;;;;1.17;0.20;;;18.10;99.90;;;;;;8313116;28;20386;-86
2024/04/02 13:00:43;;;;;;;0.30;0.30;;;19.10;98.90;;;;;;8306242;28;20032;-85
2024/04/02 13:04:43;;;;;;;0.52;0.30;;;17.60;99.50;;;;;;8303899;28;20499;-84
2024/04/02 13:08:45;;;;;;;0.10;0.10;;;16.80;99.90;;;;;;8301532;28;20041;-84
2024/04/02 13:12:45;;;;;;;2.05;0.20;;;16.10;99.90;;;;;;8300076;28;20029;-85
2024/04/02 13:16:46;;;;;;;0.22;0.20;;;15.20;99.90;;;;;;8295810;28;20029;-84
2024/04/02 13:20:46;;;;;;;0.15;0.10;;;14.30;99.90;;;;;;8292335;28;20026;-84
2024/04/02 13:24:47;;;;;;;0.85;0.30;;;14.30;99.90;;;;;;8304124;28;20048;-85
2024/04/02 13:28:59;;;;;;;0.38;0.20;;;16.90;99.90;;;;;;8300466;28;20025;-84
2024/04/02 13:33:02;;;;;;;0.13;0.13;;;19.20;98.20;;;;;;8303183;28;20022;-86
2024/04/02 13:37:03;;;;;;;0.40;0.20;;;19.10;96.70;;;;;;8302351;28;20019;-86
2024/04/02 13:41:04;;;;;;;0.30;0.28;;;20.00;96.40;;;;;;8307745;28;20028;-86
2024/04/02 13:45:05;;;;;;;0.43;0.20;;;20.40;95.00;;;;;;8299518;28;20026;-85
2024/04/02 13:49:06;;;;;;;1.08;0.25;;;20.70;93.30;;;;;;8302816;28;20045;-85
2024/04/02 13:53:06;;;;;;;0.47;0.30;;;19.70;93.20;;;;;;8306497;28;20039;-85
2024/04/02 13:57:09;;;;;;;0.20;0.20;;;17.30;95.70;;;;;;8300331;28;20026;-86
2024/04/02 14:01:09;;;;;;;0.95;0.38;;;17.70;98.20;;;;;;8301115;28;20023;-86
2024/04/02 14:05:10;;;;;;;0.13;0.13;;;19.20;97.70;;;;;;8299468;28;20390;-85
2024/04/02 14:09:10;;;;;;;0.95;0.22;;;17.50;95.00;;;;;;8316470;28;20025;-85
2024/04/02 14:13:16;;;;;;;0.77;0.40;;;16.30;97.80;;;;;;8305149;28;20402;-84
2024/04/02 14:17:16;;;;;;;0.28;0.20;;;15.60;99.70;;;;;;8304124;28;20014;-85
2024/04/02 14:21:17;;;;;;;0.75;0.25;;;15.10;99.90;;;;;;8294988;28;20030;-85
2024/04/02 14:25:18;;;;;;;0.40;0.20;;;14.10;99.90;;;;;;8298461;28;20032;-85
2024/04/02 14:29:18;;;;;;;0.20;0.20;;;14.80;99.90;;;;;;8326153;28;20029;-87
2024/04/02 14:33:19;;;;;;;0.25;0.20;;;18.40;98.80;;;;;;8325824;28;20506;-85
2024/04/02 14:37:19;;;;;;;0.35;0.30;;;19.70;94.30;;;;;;8315029;28;20033;-84
2024/04/02 14:41:20;;;;;;;0.20;0.20;;;20.60;92.90;;;;;;8301812;28;20037;-84
2024/04/02 14:45:20;;;;;;;0.57;0.30;;;21.50;92.60;;;;;;8299533;28;20030;-84
2024/04/02 14:49:21;;;;;;;0.40;0.30;;;22.20;91.70;;;;;;8299983;28;20030;-83
2024/04/02 14:53:21;;;;;;;0.10;0.10;;;21.90;88.90;;;;;;8303780;28;20077;-84
2024/04/02 14:57:22;;;;;;;0.85;0.35;;;19.10;93.30;;;;;;8314881;28;20129;-84
2024/04/02 15:01:22;;;;;;;0.43;0.30;;;16.30;96.40;;;;;;8317723;28;20022;-83
2024/04/02 15:05:23;;;;;;;0.20;0.20;;;14.60;99.90;;;;;;8309651;28;20025;-83
2024/04/02 15:09:24;;;;;;;0.40;0.20;;;13.80;99.90;;;;;;8325672;28;20064;-83
2024/04/02 15:13:24;;;;;;;0.57;0.30;;;13.80;99.90;;;;;;8301610;28;20054;-84
2024/04/02 15:17:25;;;;;;;0.80;0.20;;;14.20;99.90;;;;;;8314996;28;20030;-82
2024/04/02 15:21:25;;;;;;;0.20;0.20;;;14.20;99.90;;;;;;8321326;28;20041;-84
2024/04/02 15:25:26;;;;;;;1.65;0.30;;;13.60;99.90;;;;;;8322116;28;20038;-83
2024/04/02 15:29:27;;;;;;;0.57;0.28;;;13.10;99.90;;;;;;8326305;28;20509;-84
2024/04/02 15:33:27;;;;;;;0.43;0.35;;;12.90;99.90;;;;;;8310950;28;20041;-83
2024/04/02 15:37:28;;;;;;;2.83;0.35;;;12.90;99.90;;;;;;8314150;28;20072;-83
2024/04/02 15:41:28;;;;;;;0.10;0.10;;;13.10;99.90;;;;;;8309689;28;20034;-84
2024/04/02 15:45:29;;;;;;;0.82;0.50;;;13.20;99.90;;;;;;8316410;28;20026;-84
2024/04/02 15:49:29;;;;;;;0.52;0.20;;;13.30;99.90;;;;;;8308824;28;20513;-83
2024/04/02 15:53:30;;;;;;;0.43;0.30;;;13.30;99.90;;;;;;8318495;28;20053;-84
2024/04/02 15:57:30;;;;;;;0.30;0.30;;;15.10;99.90;;;;;;8302666;28;20036;-84
2024/04/02 16:01:34;;;;;;;0.20;0.20;;;15.70;99.30;;;;;;8323103;28;20026;-85
2024/04/02 16:05:35;;;;;;;0.20;0.20;;;15.90;98.60;;;;;;8300018;28;20022;-84
2024/04/02 16:09:37;;;;;;;0.20;0.20;;;15.50;99.00;;;;;;8313854;28;20040;-87
2024/04/02 16:13:38;;;;;;;0.20;0.20;;;14.20;99.90;;;;;;8301085;28;20080;-87
2024/04/02 16:17:47;;;;;;;0.32;0.22;;;14.40;99.90;;;;;;8302561;28;20026;-87
2024/04/02 16:21:48;;;;;;;0.20;0.20;;;13.70;99.90;;;;;;8314823;28;20128;-88
2024/04/02 16:25:51;;;;;;;0.82;0.30;;;13.10;99.90;;;;;;8318216;28;20096;-87
2024/04/02 16:29:57;;;;;;;0.32;0.20;;;12.60;99.90;;;;;;8302741;28;20052;-87
2024/04/02 16:34:01;;;;;;;0.63;0.20;;;12.70;99.90;;;;;;8312783;28;20034;-87
2024/04/02 16:38:12;;;;;;;0.13;0.13;;;12.50;99.90;;;;;;8302492;28;20521;-87
2024/04/02 16:42:15;;;;;;;0.20;0.20;;;12.00;99.90;;;;;;8292297;28;20033;-86
2024/04/02 16:46:16;;;;;;;0.38;0.30;;;11.90;99.90;;;;;;8296137;28;20414;-86
2024/04/02 16:55:41;;;;;;;0.20;0.20;;;11.80;99.90;;;;;;8292824;28;20034;-89
2024/04/02 17:12:46;;;;;;;0.57;0.20;;;10.70;99.90;;;;;;8409771;28;20097;-88
2024/04/02 17:16:46;;;;;;;1.60;0.22;;;10.50;99.90;;;;;;8405691;28;20025;-89
2024/04/02 17:20:54;;;;;;;0.93;0.20;;;10.40;99.90;;;;;;8401396;28;20028;-87
2024/04/02 17:24:55;;;;;;;0.30;0.20;;;10.00;99.90;;;;;;8401368;28;20025;-87
2024/04/02 17:28:56;;;;;;;2.70;0.20;;;10.20;99.90;;;;;;8397877;28;20397;-87
2024/04/02 17:32:56;;;;;;;0.20;0.20;;;9.90;99.90;;;;;;8392986;28;20125;-87
2024/04/02 17:36:57;;;;;;;1.40;0.20;;;9.70;99.90;;;;;;8412120;28;20028;-87
2024/04/02 17:40:59;;;;;;;0.20;0.20;;;9.60;99.90;;;;;;8396445;28;20516;-87
2024/04/02 17:45:00;;;;;;;1.02;0.30;;;9.50;99.90;;;;;;8398239;28;20029;-87
2024/04/02 17:49:01;;;;;;;0.60;0.22;;;9.40;99.90;;;;;;8397210;28;20512;-87
2024/04/02 17:53:02;;;;;;;0.30;0.20;;;9.20;99.90;;;;;;8399129;28;20028;-88
2024/04/02 17:57:03;;;;;;;5.57;2.00;;;9.00;99.90;;;;;;8392915;28;20542;-87
2024/04/02 18:01:09;;;;;;;5.13;1.20;;;8.90;99.90;;;;;;8393654;28;20077;-87
2024/04/02 18:05:09;;;;;;;1.50;1.40;;;8.60;99.90;;;;;;8401346;28;20056;-87
2024/04/02 18:09:10;;;;;;;0.80;0.80;;;8.60;99.90;;;;;;8393654;28;20301;-87
2024/04/02 18:13:11;;;;;;;0.52;0.25;;;8.20;99.90;;;;;;8397214;28;20048;-87
2024/04/02 18:17:13;;;;;;;0.60;0.40;;;7.90;99.90;;;;;;8404737;28;20115;-88
2024/04/02 18:21:14;;;;;;;0.20;0.20;;;7.60;99.90;;;;;;8389734;28;20032;-87
2024/04/02 18:25:16;;;;;;;1.23;0.30;;;7.50;99.90;;;;;;8403124;28;20032;-87
2024/04/02 18:29:18;;;;;;;0.70;0.38;;;7.30;99.90;;;;;;8401959;28;20020;-87
2024/04/02 18:33:19;;;;;;;0.85;0.35;;;7.10;99.90;;;;;;8396257;28;20085;-87
2024/04/02 18:37:20;;;;;;;0.80;0.22;;;6.90;99.90;;;;;;8398212;28;20311;-84
2024/04/02 18:41:21;;;;;;;0.60;0.40;;;6.70;99.90;;;;;;8391001;28;20025;-83
2024/04/02 18:45:21;;;;;;;0.40;0.20;;;6.60;99.90;;;;;;8391435;28;20059;-84
2024/04/02 18:49:22;;;;;;;0.50;0.22;;;6.50;99.90;;;;;;8391435;28;20033;-85
2024/04/02 18:53:23;;;;;;;0.50;0.25;;;6.30;99.90;;;;;;8397957;28;20036;-84
2024/04/02 18:57:23;;;;;;;0.43;0.22;;;6.10;99.90;;;;;;8389969;28;20035;-85
2024/04/02 19:01:24;;;;;;;0.20;0.20;;;6.00;99.90;;;;;;8397392;28;20143;-84
2024/04/02 19:05:24;;;;;;;0.30;0.30;;;5.90;99.90;;;;;;8393875;28;20023;-83
2024/04/02 19:09:25;;;;;;;0.20;0.20;;;5.80;99.90;;;;;;8413501;28;20067;-83
2024/04/02 19:13:25;;;;;;;0.25;0.20;;;5.60;99.90;;;;;;8398717;28;20032;-84
2024/04/02 19:17:26;;;;;;;0.43;0.30;;;5.40;99.90;;;;;;8408894;28;20030;-84
2024/04/02 19:21:27;;;;;;;0.28;0.20;;;5.30;99.90;;;;;;8395370;28;20024;-84
2024/04/02 19:25:28;;;;;;;1.98;0.28;;;5.10;99.90;;;;;;8416589;28;20009;-81
2024/04/02 19:29:28;;;;;;;1.60;0.40;;;4.90;99.90;;;;;;8431120;28;20177;-83
2024/04/02 19:33:29;;;;;;;1.17;0.90;;;4.80;99.90;;;;;;8433458;28;20072;-85
2024/04/02 19:37:30;;;;;;;1.90;1.08;;;4.80;99.90;;;;;;8408359;28;20157;-84
2024/04/02 19:41:32;;;;;;;0.80;0.40;;;4.70;99.90;;;;;;8400139;28;20028;-85
2024/04/02 19:45:32;;;;;;;1.20;0.52;;;4.70;99.90;;;;;;8417545;28;20472;-85
2024/04/02 19:49:33;;;;;;;0.90;0.60;;;4.90;99.90;;;;;;8406579;28;20028;-85
2024/04/02 19:53:55;;;;;;;1.08;0.60;;;4.90;99.90;;;;;;8412226;28;20546;-85
2024/04/02 19:57:55;;;;;;;3.70;0.50;;;4.80;99.90;;;;;;8412715;28;20039;-84
2024/04/02 20:01:56;;;;;;;1.52;1.08;;;4.80;99.90;;;;;;8409949;28;20028;-85
2024/04/02 20:05:56;;;;;;;0.85;0.65;;;4.80;99.90;;;;;;8408094;28;20083;-84
2024/04/02 20:09:57;;;;;;;1.55;0.95;;;4.60;99.90;;;;;;8418609;28;20040;-85
2024/04/02 20:13:57;;;;;;;1.00;0.60;;;4.50;99.90;;;;;;8405543;28;20020;-85
2024/04/02 20:17:58;;;;;;;2.13;0.90;;;4.60;99.90;;;;;;8409180;28;20070;-84
2024/04/02 20:21:58;;;;;;;0.65;0.50;;;4.50;99.90;;;;;;8421125;28;20036;-85
2024/04/02 20:25:59;;;;;;;1.55;0.90;;;4.50;99.90;;;;;;8397176;28;20067;-85
2024/04/02 20:29:59;;;;;;;1.90;1.45;;;4.50;99.90;;;;;;8413987;28;20037;-84
2024/04/02 20:34:00;;;;;;;1.90;0.63;;;4.10;99.90;;;;;;8405103;28;20435;-84
2024/04/02 20:38:00;;;;;;;2.28;0.70;;;3.90;99.90;;;;;;8410835;28;20033;-85
2024/04/02 20:42:01;;;;;;;1.13;0.73;;;3.70;99.90;;;;;;8413589;28;20519;-84
2024/04/02 20:46:03;;;;;;;0.60;0.60;;;3.70;99.90;;;;;;8412633;28;20064;-85
2024/04/02 20:50:04;;;;;;;0.68;0.50;;;3.70;99.90;;;;;;8402981;28;20039;-84
2024/04/02 20:54:05;;;;;;;4.53;0.70;;;3.70;99.90;;;;;;8404436;28;20024;-84
2024/04/02 20:58:05;;;;;;;0.30;0.30;;;3.90;99.90;;;;;;8406928;28;20024;-84
2024/04/02 21:02:06;;;;;;;0.77;0.30;;;4.00;99.90;;;;;;8407951;28;20056;-84
2024/04/02 21:06:06;;;;;;;0.25;0.25;;;4.10;99.90;;;;;;8409037;28;20040;-84
2024/04/02 21:10:07;;;;;;;0.95;0.50;;;4.10;99.90;;;;;;8402054;28;20032;-85
2024/04/02 21:14:08;;;;;;;1.30;0.55;;;4.00;99.90;;;;;;8403303;28;20423;-84
2024/04/02 21:18:08;;;;;;;0.75;0.40;;;3.80;99.90;;;;;;8409135;28;20067;-84
2024/04/02 21:22:09;;;;;;;0.60;0.32;;;3.90;99.90;;;;;;8406805;28;20038;-84
2024/04/02 21:26:10;;;;;;;0.40;0.40;;;3.90;99.90;;;;;;8409226;28;20020;-84